sensor_id;sensor_type;location;lat;lon;timestamp;temperature;humidity
63409;DHT22;49544;50.872;4.348;2022-07-01T00:00:31;17.00;95.80
63409;DHT22;49544;50.872;4.348;2022-07-01T00:03:06;16.80;95.90
63409;DHT22;49544;50.872;4.348;2022-07-01T00:05:34;16.80;95.90
63409;DHT22;49544;50.872;4.348;2022-07-01T00:08:02;17.00;95.80
63409;DHT22;49544;50.872;4.348;2022-07-01T00:10:28;17.10;95.60
63409;DHT22;49544;50.872;4.348;2022-07-01T00:12:56;17.00;95.60
63409;DHT22;49544;50.872;4.348;2022-07-01T00:15:27;17.10;95.40
63409;DHT22;49544;50.872;4.348;2022-07-01T00:17:56;17.30;95.30
63409;DHT22;49544;50.872;4.348;2022-07-01T00:20:24;17.40;95.10
63409;DHT22;49544;50.872;4.348;2022-07-01T00:22:53;17.40;95.00
63409;DHT22;49544;50.872;4.348;2022-07-01T00:25:21;17.40;94.90
63409;DHT22;49544;50.872;4.348;2022-07-01T00:27:50;17.50;94.80
63409;DHT22;49544;50.872;4.348;2022-07-01T00:30:18;17.50;94.70
63409;DHT22;49544;50.872;4.348;2022-07-01T00:32:50;17.40;94.60
63409;DHT22;49544;50.872;4.348;2022-07-01T00:35:22;17.20;94.80
63409;DHT22;49544;50.872;4.348;2022-07-01T00:37:53;17.00;95.10
63409;DHT22;49544;50.872;4.348;2022-07-01T00:40:30;17.00;95.20
63409;DHT22;49544;50.872;4.348;2022-07-01T00:42:59;17.00;95.20
63409;DHT22;49544;50.872;4.348;2022-07-01T00:45:24;17.00;95.30
63409;DHT22;49544;50.872;4.348;2022-07-01T00:47:58;16.90;95.30
63409;DHT22;49544;50.872;4.348;2022-07-01T00:50:26;17.00;95.30
63409;DHT22;49544;50.872;4.348;2022-07-01T00:52:55;16.90;95.30
63409;DHT22;49544;50.872;4.348;2022-07-01T00:55:21;16.90;95.30
63409;DHT22;49544;50.872;4.348;2022-07-01T00:57:49;16.90;95.40
63409;DHT22;49544;50.872;4.348;2022-07-01T01:00:18;16.80;95.60
63409;DHT22;49544;50.872;4.348;2022-07-01T01:02:47;16.60;96.00
63409;DHT22;49544;50.872;4.348;2022-07-01T01:05:18;16.60;96.00
63409;DHT22;49544;50.872;4.348;2022-07-01T01:07:47;16.60;95.90
63409;DHT22;49544;50.872;4.348;2022-07-01T01:10:13;16.60;96.00
63409;DHT22;49544;50.872;4.348;2022-07-01T01:12:39;16.70;95.80
63409;DHT22;49544;50.872;4.348;2022-07-01T01:15:16;16.60;96.00
63409;DHT22;49544;50.872;4.348;2022-07-01T01:17:45;16.60;95.90
63409;DHT22;49544;50.872;4.348;2022-07-01T01:20:19;16.50;96.20
63409;DHT22;49544;50.872;4.348;2022-07-01T01:22:47;16.60;96.20
63409;DHT22;49544;50.872;4.348;2022-07-01T01:25:18;16.70;96.00
63409;DHT22;49544;50.872;4.348;2022-07-01T01:27:44;16.70;96.00
63409;DHT22;49544;50.872;4.348;2022-07-01T01:30:12;16.60;96.20
63409;DHT22;49544;50.872;4.348;2022-07-01T01:32:41;16.70;96.00
63409;DHT22;49544;50.872;4.348;2022-07-01T01:35:07;16.90;95.80
63409;DHT22;49544;50.872;4.348;2022-07-01T01:37:38;16.90;95.60
63409;DHT22;49544;50.872;4.348;2022-07-01T01:40:06;16.70;95.90
63409;DHT22;49544;50.872;4.348;2022-07-01T01:42:32;16.70;96.00
63409;DHT22;49544;50.872;4.348;2022-07-01T01:45:01;16.90;95.80
63409;DHT22;49544;50.872;4.348;2022-07-01T01:47:27;17.00;95.40
63409;DHT22;49544;50.872;4.348;2022-07-01T01:49:58;17.10;95.40
63409;DHT22;49544;50.872;4.348;2022-07-01T01:52:28;17.30;95.20
63409;DHT22;49544;50.872;4.348;2022-07-01T01:54:56;16.90;95.60
63409;DHT22;49544;50.872;4.348;2022-07-01T01:57:22;16.80;96.10
63409;DHT22;49544;50.872;4.348;2022-07-01T01:59:50;16.70;96.10
63409;DHT22;49544;50.872;4.348;2022-07-01T02:02:18;16.50;96.30
63409;DHT22;49544;50.872;4.348;2022-07-01T02:04:46;16.20;97.00
63409;DHT22;49544;50.872;4.348;2022-07-01T02:07:15;15.90;97.60
63409;DHT22;49544;50.872;4.348;2022-07-01T02:09:41;15.90;97.70
63409;DHT22;49544;50.872;4.348;2022-07-01T02:12:06;16.20;97.40
63409;DHT22;49544;50.872;4.348;2022-07-01T02:14:32;16.50;96.80
63409;DHT22;49544;50.872;4.348;2022-07-01T02:17:06;16.60;96.40
63409;DHT22;49544;50.872;4.348;2022-07-01T02:19:33;16.60;96.30
63409;DHT22;49544;50.872;4.348;2022-07-01T02:21:59;16.40;96.50
63409;DHT22;49544;50.872;4.348;2022-07-01T02:24:27;16.40;96.70
63409;DHT22;49544;50.872;4.348;2022-07-01T02:26:55;16.60;96.40
63409;DHT22;49544;50.872;4.348;2022-07-01T02:29:24;16.80;95.90
63409;DHT22;49544;50.872;4.348;2022-07-01T02:31:52;16.70;95.80
63409;DHT22;49544;50.872;4.348;2022-07-01T02:34:20;16.60;95.90
63409;DHT22;49544;50.872;4.348;2022-07-01T02:36:46;16.60;96.20
63409;DHT22;49544;50.872;4.348;2022-07-01T02:39:12;16.60;96.00
63409;DHT22;49544;50.872;4.348;2022-07-01T02:41:37;16.50;96.10
63409;DHT22;49544;50.872;4.348;2022-07-01T02:44:23;16.40;96.30
63409;DHT22;49544;50.872;4.348;2022-07-01T02:46:49;16.30;96.60
63409;DHT22;49544;50.872;4.348;2022-07-01T02:49:14;16.40;96.40
63409;DHT22;49544;50.872;4.348;2022-07-01T02:51:44;16.20;96.90
63409;DHT22;49544;50.872;4.348;2022-07-01T02:54:22;16.20;96.80
63409;DHT22;49544;50.872;4.348;2022-07-01T02:56:48;16.00;96.90
63409;DHT22;49544;50.872;4.348;2022-07-01T02:59:14;15.90;97.30
63409;DHT22;49544;50.872;4.348;2022-07-01T03:01:39;16.00;97.10
63409;DHT22;49544;50.872;4.348;2022-07-01T03:04:07;16.10;96.90
63409;DHT22;49544;50.872;4.348;2022-07-01T03:06:33;16.10;96.80
63409;DHT22;49544;50.872;4.348;2022-07-01T03:09:04;16.20;96.80
63409;DHT22;49544;50.872;4.348;2022-07-01T03:11:30;16.20;96.60
63409;DHT22;49544;50.872;4.348;2022-07-01T03:14:01;16.10;96.70
63409;DHT22;49544;50.872;4.348;2022-07-01T03:16:27;15.90;96.90
63409;DHT22;49544;50.872;4.348;2022-07-01T03:18:55;15.90;97.10
63409;DHT22;49544;50.872;4.348;2022-07-01T03:21:23;16.00;96.90
63409;DHT22;49544;50.872;4.348;2022-07-01T03:23:56;16.20;96.50
63409;DHT22;49544;50.872;4.348;2022-07-01T03:26:21;16.00;96.60
63409;DHT22;49544;50.872;4.348;2022-07-01T03:28:47;15.90;96.80
63409;DHT22;49544;50.872;4.348;2022-07-01T03:31:23;16.00;96.90
63409;DHT22;49544;50.872;4.348;2022-07-01T03:33:55;16.10;96.60
63409;DHT22;49544;50.872;4.348;2022-07-01T03:36:23;16.20;96.70
63409;DHT22;49544;50.872;4.348;2022-07-01T03:38:49;16.00;96.50
63409;DHT22;49544;50.872;4.348;2022-07-01T03:41:17;16.00;96.70
63409;DHT22;49544;50.872;4.348;2022-07-01T03:43:45;15.90;96.80
63409;DHT22;49544;50.872;4.348;2022-07-01T03:46:14;15.70;97.20
63409;DHT22;49544;50.872;4.348;2022-07-01T03:48:39;15.60;97.50
63409;DHT22;49544;50.872;4.348;2022-07-01T03:51:05;15.60;97.60
63409;DHT22;49544;50.872;4.348;2022-07-01T03:53:31;15.60;97.40
63409;DHT22;49544;50.872;4.348;2022-07-01T03:56:15;15.40;97.80
63409;DHT22;49544;50.872;4.348;2022-07-01T03:58:40;15.30;97.80
63409;DHT22;49544;50.872;4.348;2022-07-01T04:01:08;15.50;97.70
63409;DHT22;49544;50.872;4.348;2022-07-01T04:03:37;15.50;97.70
63409;DHT22;49544;50.872;4.348;2022-07-01T04:06:06;15.50;97.60
63409;DHT22;49544;50.872;4.348;2022-07-01T04:08:41;15.40;97.60
63409;DHT22;49544;50.872;4.348;2022-07-01T04:11:09;15.20;97.80
63409;DHT22;49544;50.872;4.348;2022-07-01T04:13:38;15.10;98.20
63409;DHT22;49544;50.872;4.348;2022-07-01T04:16:06;14.90;98.60
63409;DHT22;49544;50.872;4.348;2022-07-01T04:18:37;14.80;98.90
63409;DHT22;49544;50.872;4.348;2022-07-01T04:21:12;14.80;98.80
63409;DHT22;49544;50.872;4.348;2022-07-01T04:23:56;14.90;98.60
63409;DHT22;49544;50.872;4.348;2022-07-01T04:26:23;14.90;98.40
63409;DHT22;49544;50.872;4.348;2022-07-01T04:28:54;14.90;98.40
63409;DHT22;49544;50.872;4.348;2022-07-01T04:31:20;14.90;98.30
63409;DHT22;49544;50.872;4.348;2022-07-01T04:33:47;15.10;98.20
63409;DHT22;49544;50.872;4.348;2022-07-01T04:36:16;15.30;97.80
63409;DHT22;49544;50.872;4.348;2022-07-01T04:38:42;15.60;97.20
63409;DHT22;49544;50.872;4.348;2022-07-01T04:41:11;15.80;96.70
63409;DHT22;49544;50.872;4.348;2022-07-01T04:43:58;16.00;96.30
63409;DHT22;49544;50.872;4.348;2022-07-01T04:46:24;16.20;96.00
63409;DHT22;49544;50.872;4.348;2022-07-01T04:48:52;16.30;95.70
63409;DHT22;49544;50.872;4.348;2022-07-01T04:51:21;16.50;95.40
63409;DHT22;49544;50.872;4.348;2022-07-01T04:53:47;16.60;95.30
63409;DHT22;49544;50.872;4.348;2022-07-01T04:56:13;16.50;95.10
63409;DHT22;49544;50.872;4.348;2022-07-01T04:58:42;16.30;95.40
63409;DHT22;49544;50.872;4.348;2022-07-01T05:01:13;16.20;95.60
63409;DHT22;49544;50.872;4.348;2022-07-01T05:03:42;16.10;95.70
63409;DHT22;49544;50.872;4.348;2022-07-01T05:06:08;16.00;95.90
63409;DHT22;49544;50.872;4.348;2022-07-01T05:08:35;16.10;95.80
63409;DHT22;49544;50.872;4.348;2022-07-01T05:11:06;15.90;96.10
63409;DHT22;49544;50.872;4.348;2022-07-01T05:13:32;15.70;96.40
63409;DHT22;49544;50.872;4.348;2022-07-01T05:16:04;15.50;96.70
63409;DHT22;49544;50.872;4.348;2022-07-01T05:18:30;15.50;96.80
63409;DHT22;49544;50.872;4.348;2022-07-01T05:21:14;15.80;96.40
63409;DHT22;49544;50.872;4.348;2022-07-01T05:24:00;15.80;96.20
63409;DHT22;49544;50.872;4.348;2022-07-01T05:26:35;15.80;96.30
63409;DHT22;49544;50.872;4.348;2022-07-01T05:29:03;15.80;96.00
63409;DHT22;49544;50.872;4.348;2022-07-01T05:31:31;15.90;96.00
63409;DHT22;49544;50.872;4.348;2022-07-01T05:34:02;16.10;95.90
63409;DHT22;49544;50.872;4.348;2022-07-01T05:36:31;16.30;95.70
63409;DHT22;49544;50.872;4.348;2022-07-01T05:39:00;16.40;95.20
63409;DHT22;49544;50.872;4.348;2022-07-01T05:41:28;16.50;95.10
63409;DHT22;49544;50.872;4.348;2022-07-01T05:43:54;16.60;94.80
63409;DHT22;49544;50.872;4.348;2022-07-01T05:46:19;16.70;94.60
63409;DHT22;49544;50.872;4.348;2022-07-01T05:48:50;16.80;94.30
63409;DHT22;49544;50.872;4.348;2022-07-01T05:51:18;16.40;94.90
63409;DHT22;49544;50.872;4.348;2022-07-01T05:53:44;16.40;95.20
63409;DHT22;49544;50.872;4.348;2022-07-01T05:56:12;16.50;95.20
63409;DHT22;49544;50.872;4.348;2022-07-01T05:58:38;16.50;95.00
63409;DHT22;49544;50.872;4.348;2022-07-01T06:01:04;16.60;94.90
63409;DHT22;49544;50.872;4.348;2022-07-01T06:03:32;16.60;94.80
63409;DHT22;49544;50.872;4.348;2022-07-01T06:06:01;16.50;95.00
63409;DHT22;49544;50.872;4.348;2022-07-01T06:08:26;16.80;94.90
63409;DHT22;49544;50.872;4.348;2022-07-01T06:10:54;16.50;95.10
63409;DHT22;49544;50.872;4.348;2022-07-01T06:13:23;16.40;95.70
63409;DHT22;49544;50.872;4.348;2022-07-01T06:15:51;16.40;95.40
63409;DHT22;49544;50.872;4.348;2022-07-01T06:18:20;16.30;95.40
63409;DHT22;49544;50.872;4.348;2022-07-01T06:20:45;16.30;95.40
63409;DHT22;49544;50.872;4.348;2022-07-01T06:23:16;16.50;95.40
63409;DHT22;49544;50.872;4.348;2022-07-01T06:25:55;16.60;95.20
63409;DHT22;49544;50.872;4.348;2022-07-01T06:28:21;16.70;95.20
63409;DHT22;49544;50.872;4.348;2022-07-01T06:30:47;16.80;94.90
63409;DHT22;49544;50.872;4.348;2022-07-01T06:33:13;17.00;95.00
63409;DHT22;49544;50.872;4.348;2022-07-01T06:35:45;17.00;94.60
63409;DHT22;49544;50.872;4.348;2022-07-01T06:38:13;17.10;94.60
63409;DHT22;49544;50.872;4.348;2022-07-01T06:40:41;17.30;94.10
63409;DHT22;49544;50.872;4.348;2022-07-01T06:43:29;17.50;93.80
63409;DHT22;49544;50.872;4.348;2022-07-01T06:45:55;17.40;93.90
63409;DHT22;49544;50.872;4.348;2022-07-01T06:48:23;17.60;93.60
63409;DHT22;49544;50.872;4.348;2022-07-01T06:50:48;17.70;93.30
63409;DHT22;49544;50.872;4.348;2022-07-01T06:53:14;17.80;92.80
63409;DHT22;49544;50.872;4.348;2022-07-01T06:55:42;17.90;92.40
63409;DHT22;49544;50.872;4.348;2022-07-01T06:58:08;17.90;92.70
63409;DHT22;49544;50.872;4.348;2022-07-01T07:00:35;18.00;92.70
63409;DHT22;49544;50.872;4.348;2022-07-01T07:03:05;18.00;92.60
63409;DHT22;49544;50.872;4.348;2022-07-01T07:05:42;17.90;92.60
63409;DHT22;49544;50.872;4.348;2022-07-01T07:08:11;18.00;92.40
63409;DHT22;49544;50.872;4.348;2022-07-01T07:10:37;18.10;92.40
63409;DHT22;49544;50.872;4.348;2022-07-01T07:13:03;18.20;92.20
63409;DHT22;49544;50.872;4.348;2022-07-01T07:15:31;18.10;92.20
63409;DHT22;49544;50.872;4.348;2022-07-01T07:17:59;18.00;91.90
63409;DHT22;49544;50.872;4.348;2022-07-01T07:20:28;17.90;92.80
63409;DHT22;49544;50.872;4.348;2022-07-01T07:22:53;17.80;92.60
63409;DHT22;49544;50.872;4.348;2022-07-01T07:25:22;17.80;92.70
63409;DHT22;49544;50.872;4.348;2022-07-01T07:27:53;18.20;91.50
63409;DHT22;49544;50.872;4.348;2022-07-01T07:30:19;18.20;92.20
63409;DHT22;49544;50.872;4.348;2022-07-01T07:32:44;18.20;91.70
63409;DHT22;49544;50.872;4.348;2022-07-01T07:35:13;18.00;91.90
63409;DHT22;49544;50.872;4.348;2022-07-01T07:37:45;18.10;91.60
63409;DHT22;49544;50.872;4.348;2022-07-01T07:40:11;18.00;91.60
63409;DHT22;49544;50.872;4.348;2022-07-01T07:42:44;18.00;91.80
63409;DHT22;49544;50.872;4.348;2022-07-01T07:45:15;18.10;91.70
63409;DHT22;49544;50.872;4.348;2022-07-01T07:47:41;18.30;91.10
63409;DHT22;49544;50.872;4.348;2022-07-01T07:50:14;18.20;91.10
63409;DHT22;49544;50.872;4.348;2022-07-01T07:52:40;18.00;91.90
63409;DHT22;49544;50.872;4.348;2022-07-01T07:55:10;18.00;92.00
63409;DHT22;49544;50.872;4.348;2022-07-01T07:57:36;18.10;91.80
63409;DHT22;49544;50.872;4.348;2022-07-01T08:00:05;18.30;91.50
63409;DHT22;49544;50.872;4.348;2022-07-01T08:02:31;18.50;91.30
63409;DHT22;49544;50.872;4.348;2022-07-01T08:05:02;18.30;90.90
63409;DHT22;49544;50.872;4.348;2022-07-01T08:07:28;18.20;90.80
63409;DHT22;49544;50.872;4.348;2022-07-01T08:09:53;18.50;90.00
63409;DHT22;49544;50.872;4.348;2022-07-01T08:12:21;18.80;90.00
63409;DHT22;49544;50.872;4.348;2022-07-01T08:14:48;18.90;88.40
63409;DHT22;49544;50.872;4.348;2022-07-01T08:17:19;18.80;90.00
63409;DHT22;49544;50.872;4.348;2022-07-01T08:19:47;18.70;89.70
63409;DHT22;49544;50.872;4.348;2022-07-01T08:22:18;18.70;90.10
63409;DHT22;49544;50.872;4.348;2022-07-01T08:24:49;18.80;90.30
63409;DHT22;49544;50.872;4.348;2022-07-01T08:27:18;18.90;89.80
63409;DHT22;49544;50.872;4.348;2022-07-01T08:29:49;18.80;89.80
63409;DHT22;49544;50.872;4.348;2022-07-01T08:34:53;18.40;90.00
63409;DHT22;49544;50.872;4.348;2022-07-01T08:37:22;18.70;88.40
63409;DHT22;49544;50.872;4.348;2022-07-01T08:39:53;18.70;87.60
63409;DHT22;49544;50.872;4.348;2022-07-01T08:42:24;18.60;88.50
63409;DHT22;49544;50.872;4.348;2022-07-01T08:44:55;18.80;88.70
63409;DHT22;49544;50.872;4.348;2022-07-01T08:47:27;18.90;88.60
63409;DHT22;49544;50.872;4.348;2022-07-01T08:50:00;19.00;89.10
63409;DHT22;49544;50.872;4.348;2022-07-01T08:52:29;19.20;89.40
63409;DHT22;49544;50.872;4.348;2022-07-01T08:55:00;19.40;86.30
63409;DHT22;49544;50.872;4.348;2022-07-01T08:57:26;19.40;85.70
63409;DHT22;49544;50.872;4.348;2022-07-01T09:00:03;19.30;85.60
63409;DHT22;49544;50.872;4.348;2022-07-01T09:03:18;19.40;85.10
63409;DHT22;49544;50.872;4.348;2022-07-01T09:05:28;19.60;86.10
63409;DHT22;49544;50.872;4.348;2022-07-01T09:08:04;19.70;86.80
63409;DHT22;49544;50.872;4.348;2022-07-01T09:10:30;19.50;85.80
63409;DHT22;49544;50.872;4.348;2022-07-01T09:13:11;19.60;85.80
63409;DHT22;49544;50.872;4.348;2022-07-01T09:15:41;19.80;84.20
63409;DHT22;49544;50.872;4.348;2022-07-01T09:18:16;19.80;84.70
63409;DHT22;49544;50.872;4.348;2022-07-01T09:20:50;20.00;83.70
63409;DHT22;49544;50.872;4.348;2022-07-01T09:23:21;20.20;82.20
63409;DHT22;49544;50.872;4.348;2022-07-01T09:25:52;20.30;80.70
63409;DHT22;49544;50.872;4.348;2022-07-01T09:28:21;20.20;81.50
63409;DHT22;49544;50.872;4.348;2022-07-01T09:30:49;20.10;82.70
63409;DHT22;49544;50.872;4.348;2022-07-01T09:33:16;20.10;83.50
63409;DHT22;49544;50.872;4.348;2022-07-01T09:35:45;20.20;81.50
63409;DHT22;49544;50.872;4.348;2022-07-01T09:38:23;20.30;81.90
63409;DHT22;49544;50.872;4.348;2022-07-01T09:41:02;20.50;80.70
63409;DHT22;49544;50.872;4.348;2022-07-01T09:43:31;20.60;81.30
63409;DHT22;49544;50.872;4.348;2022-07-01T09:46:06;20.60;80.10
63409;DHT22;49544;50.872;4.348;2022-07-01T09:50:58;20.30;79.60
63409;DHT22;49544;50.872;4.348;2022-07-01T09:53:26;20.50;80.60
63409;DHT22;49544;50.872;4.348;2022-07-01T09:55:55;20.50;81.50
63409;DHT22;49544;50.872;4.348;2022-07-01T09:58:26;20.40;81.30
63409;DHT22;49544;50.872;4.348;2022-07-01T10:00:55;20.20;80.20
63409;DHT22;49544;50.872;4.348;2022-07-01T10:03:22;20.10;80.80
63409;DHT22;49544;50.872;4.348;2022-07-01T10:05:53;20.30;79.80
63409;DHT22;49544;50.872;4.348;2022-07-01T10:13:48;21.00;75.30
63409;DHT22;49544;50.872;4.348;2022-07-01T10:16:27;21.00;75.60
63409;DHT22;49544;50.872;4.348;2022-07-01T10:18:58;21.10;74.10
63409;DHT22;49544;50.872;4.348;2022-07-01T10:21:27;21.10;74.80
63409;DHT22;49544;50.872;4.348;2022-07-01T10:23:56;21.10;75.90
63409;DHT22;49544;50.872;4.348;2022-07-01T10:26:38;21.20;73.50
63409;DHT22;49544;50.872;4.348;2022-07-01T10:31:53;21.10;75.70
63409;DHT22;49544;50.872;4.348;2022-07-01T10:34:27;20.70;76.10
63409;DHT22;49544;50.872;4.348;2022-07-01T10:37:06;20.70;76.40
63409;DHT22;49544;50.872;4.348;2022-07-01T10:42:34;21.10;75.80
63409;DHT22;49544;50.872;4.348;2022-07-01T10:45:11;21.50;71.50
63409;DHT22;49544;50.872;4.348;2022-07-01T10:47:39;21.60;74.20
63409;DHT22;49544;50.872;4.348;2022-07-01T10:52:31;21.70;69.50
63409;DHT22;49544;50.872;4.348;2022-07-01T10:55:02;21.70;71.90
63409;DHT22;49544;50.872;4.348;2022-07-01T10:57:31;21.40;71.00
63409;DHT22;49544;50.872;4.348;2022-07-01T11:05:01;21.50;72.90
63409;DHT22;49544;50.872;4.348;2022-07-01T11:07:34;21.40;71.70
63409;DHT22;49544;50.872;4.348;2022-07-01T11:10:04;21.30;72.40
63409;DHT22;49544;50.872;4.348;2022-07-01T11:12:30;21.50;70.90
63409;DHT22;49544;50.872;4.348;2022-07-01T11:15:02;21.60;72.10
63409;DHT22;49544;50.872;4.348;2022-07-01T11:17:28;21.70;70.80
63409;DHT22;49544;50.872;4.348;2022-07-01T11:19:58;21.80;68.70
63409;DHT22;49544;50.872;4.348;2022-07-01T11:22:32;22.00;69.40
63409;DHT22;49544;50.872;4.348;2022-07-01T11:25:05;22.10;69.30
63409;DHT22;49544;50.872;4.348;2022-07-01T11:27:39;22.20;65.70
63409;DHT22;49544;50.872;4.348;2022-07-01T11:30:09;22.20;66.90
63409;DHT22;49544;50.872;4.348;2022-07-01T11:32:48;22.00;66.30
63409;DHT22;49544;50.872;4.348;2022-07-01T11:35:18;22.00;67.20
63409;DHT22;49544;50.872;4.348;2022-07-01T11:40:50;21.80;65.50
63409;DHT22;49544;50.872;4.348;2022-07-01T11:43:25;21.80;67.50
63409;DHT22;49544;50.872;4.348;2022-07-01T11:45:56;22.00;66.40
63409;DHT22;49544;50.872;4.348;2022-07-01T11:48:47;22.00;65.10
63409;DHT22;49544;50.872;4.348;2022-07-01T11:51:19;21.90;66.40
63409;DHT22;49544;50.872;4.348;2022-07-01T11:53:54;21.80;65.00
63409;DHT22;49544;50.872;4.348;2022-07-01T11:56:33;21.70;65.80
63409;DHT22;49544;50.872;4.348;2022-07-01T11:58:59;21.60;66.50
63409;DHT22;49544;50.872;4.348;2022-07-01T12:01:28;21.70;65.80
63409;DHT22;49544;50.872;4.348;2022-07-01T12:04:03;21.80;65.80
63409;DHT22;49544;50.872;4.348;2022-07-01T12:06:32;21.80;65.70
63409;DHT22;49544;50.872;4.348;2022-07-01T12:09:16;21.70;67.10
63409;DHT22;49544;50.872;4.348;2022-07-01T12:11:46;21.80;66.00
63409;DHT22;49544;50.872;4.348;2022-07-01T12:14:22;22.20;64.20
63409;DHT22;49544;50.872;4.348;2022-07-01T12:16:50;22.50;65.20
63409;DHT22;49544;50.872;4.348;2022-07-01T12:19:23;22.30;65.80
63409;DHT22;49544;50.872;4.348;2022-07-01T12:21:52;22.20;66.40
63409;DHT22;49544;50.872;4.348;2022-07-01T12:24:21;22.10;64.90
63409;DHT22;49544;50.872;4.348;2022-07-01T12:26:51;22.20;64.00
63409;DHT22;49544;50.872;4.348;2022-07-01T12:29:22;22.30;64.40
63409;DHT22;49544;50.872;4.348;2022-07-01T12:31:58;22.30;65.00
63409;DHT22;49544;50.872;4.348;2022-07-01T12:34:36;22.30;63.60
63409;DHT22;49544;50.872;4.348;2022-07-01T12:37:07;22.40;63.50
63409;DHT22;49544;50.872;4.348;2022-07-01T12:44:57;22.40;63.80
63409;DHT22;49544;50.872;4.348;2022-07-01T12:52:39;22.50;63.70
63409;DHT22;49544;50.872;4.348;2022-07-01T12:55:17;22.50;62.90
63409;DHT22;49544;50.872;4.348;2022-07-01T12:57:53;22.60;64.30
63409;DHT22;49544;50.872;4.348;2022-07-01T13:00:21;22.80;63.10
63409;DHT22;49544;50.872;4.348;2022-07-01T13:02:50;23.10;60.10
63409;DHT22;49544;50.872;4.348;2022-07-01T13:05:21;23.10;60.30
63409;DHT22;49544;50.872;4.348;2022-07-01T13:07:49;23.10;60.30
63409;DHT22;49544;50.872;4.348;2022-07-01T13:10:18;23.00;60.00
63409;DHT22;49544;50.872;4.348;2022-07-01T13:12:50;23.00;59.30
63409;DHT22;49544;50.872;4.348;2022-07-01T13:15:19;23.00;60.60
63409;DHT22;49544;50.872;4.348;2022-07-01T13:17:45;23.20;60.00
63409;DHT22;49544;50.872;4.348;2022-07-01T13:20:11;23.20;61.00
63409;DHT22;49544;50.872;4.348;2022-07-01T13:22:39;23.20;60.90
63409;DHT22;49544;50.872;4.348;2022-07-01T13:25:11;22.80;61.30
63409;DHT22;49544;50.872;4.348;2022-07-01T13:27:37;22.80;61.50
63409;DHT22;49544;50.872;4.348;2022-07-01T13:30:06;22.70;60.80
63409;DHT22;49544;50.872;4.348;2022-07-01T13:32:37;22.80;61.70
63409;DHT22;49544;50.872;4.348;2022-07-01T13:35:09;22.50;61.60
63409;DHT22;49544;50.872;4.348;2022-07-01T13:37:40;22.50;61.50
63409;DHT22;49544;50.872;4.348;2022-07-01T13:40:15;22.60;61.70
63409;DHT22;49544;50.872;4.348;2022-07-01T13:42:44;22.80;59.80
63409;DHT22;49544;50.872;4.348;2022-07-01T13:45:17;22.80;59.90
63409;DHT22;49544;50.872;4.348;2022-07-01T13:47:45;22.50;61.10
63409;DHT22;49544;50.872;4.348;2022-07-01T13:50:16;22.50;60.90
63409;DHT22;49544;50.872;4.348;2022-07-01T13:52:48;22.30;61.70
63409;DHT22;49544;50.872;4.348;2022-07-01T13:55:20;22.50;60.90
63409;DHT22;49544;50.872;4.348;2022-07-01T13:57:48;22.60;61.30
63409;DHT22;49544;50.872;4.348;2022-07-01T14:00:16;22.60;61.50
63409;DHT22;49544;50.872;4.348;2022-07-01T14:02:50;22.60;60.80
63409;DHT22;49544;50.872;4.348;2022-07-01T14:05:16;22.80;61.20
63409;DHT22;49544;50.872;4.348;2022-07-01T14:07:48;22.60;62.00
63409;DHT22;49544;50.872;4.348;2022-07-01T14:10:17;22.60;62.10
63409;DHT22;49544;50.872;4.348;2022-07-01T14:12:48;22.60;61.70
63409;DHT22;49544;50.872;4.348;2022-07-01T14:15:17;22.30;61.90
63409;DHT22;49544;50.872;4.348;2022-07-01T14:17:50;22.40;62.20
63409;DHT22;49544;50.872;4.348;2022-07-01T14:20:21;22.50;63.00
63409;DHT22;49544;50.872;4.348;2022-07-01T14:22:52;22.40;63.50
63409;DHT22;49544;50.872;4.348;2022-07-01T14:25:26;22.50;63.70
63409;DHT22;49544;50.872;4.348;2022-07-01T14:27:55;22.30;63.90
63409;DHT22;49544;50.872;4.348;2022-07-01T14:30:20;22.30;64.40
63409;DHT22;49544;50.872;4.348;2022-07-01T14:32:46;22.30;64.70
63409;DHT22;49544;50.872;4.348;2022-07-01T14:35:14;22.30;64.90
63409;DHT22;49544;50.872;4.348;2022-07-01T14:37:51;22.50;65.30
63409;DHT22;49544;50.872;4.348;2022-07-01T14:40:22;22.50;65.80
63409;DHT22;49544;50.872;4.348;2022-07-01T14:42:57;22.50;66.30
63409;DHT22;49544;50.872;4.348;2022-07-01T14:45:22;22.50;67.00
63409;DHT22;49544;50.872;4.348;2022-07-01T14:47:56;22.50;65.30
63409;DHT22;49544;50.872;4.348;2022-07-01T14:50:25;22.60;65.30
63409;DHT22;49544;50.872;4.348;2022-07-01T14:55:35;22.60;64.60
63409;DHT22;49544;50.872;4.348;2022-07-01T14:58:06;22.60;65.50
63409;DHT22;49544;50.872;4.348;2022-07-01T15:00:32;22.50;65.90
63409;DHT22;49544;50.872;4.348;2022-07-01T15:03:04;22.50;65.80
63409;DHT22;49544;50.872;4.348;2022-07-01T15:05:35;22.40;66.60
63409;DHT22;49544;50.872;4.348;2022-07-01T15:08:01;22.50;66.10
63409;DHT22;49544;50.872;4.348;2022-07-01T15:10:29;22.40;67.10
63409;DHT22;49544;50.872;4.348;2022-07-01T15:12:57;22.40;64.50
63409;DHT22;49544;50.872;4.348;2022-07-01T15:15:25;22.40;64.10
63409;DHT22;49544;50.872;4.348;2022-07-01T15:17:57;22.50;63.30
63409;DHT22;49544;50.872;4.348;2022-07-01T15:20:24;22.60;62.80
63409;DHT22;49544;50.872;4.348;2022-07-01T15:22:59;22.60;64.10
63409;DHT22;49544;50.872;4.348;2022-07-01T15:25:33;22.60;63.50
63409;DHT22;49544;50.872;4.348;2022-07-01T15:27:58;22.60;64.20
63409;DHT22;49544;50.872;4.348;2022-07-01T15:30:30;22.30;63.80
63409;DHT22;49544;50.872;4.348;2022-07-01T15:33:04;22.10;64.80
63409;DHT22;49544;50.872;4.348;2022-07-01T15:35:30;22.20;64.60
63409;DHT22;49544;50.872;4.348;2022-07-01T15:37:58;22.40;64.80
63409;DHT22;49544;50.872;4.348;2022-07-01T15:40:26;22.70;64.00
63409;DHT22;49544;50.872;4.348;2022-07-01T15:42:57;22.90;64.10
63409;DHT22;49544;50.872;4.348;2022-07-01T15:45:23;23.00;62.90
63409;DHT22;49544;50.872;4.348;2022-07-01T15:47:54;22.90;64.30
63409;DHT22;49544;50.872;4.348;2022-07-01T15:50:36;23.00;62.40
63409;DHT22;49544;50.872;4.348;2022-07-01T15:53:06;23.10;61.70
63409;DHT22;49544;50.872;4.348;2022-07-01T15:55:36;23.10;63.20
63409;DHT22;49544;50.872;4.348;2022-07-01T15:58:11;22.90;63.90
63409;DHT22;49544;50.872;4.348;2022-07-01T16:00:39;22.80;64.30
63409;DHT22;49544;50.872;4.348;2022-07-01T16:03:17;22.90;64.20
63409;DHT22;49544;50.872;4.348;2022-07-01T16:05:48;23.00;62.50
63409;DHT22;49544;50.872;4.348;2022-07-01T16:11:15;23.20;61.30
63409;DHT22;49544;50.872;4.348;2022-07-01T16:13:52;23.20;61.30
63409;DHT22;49544;50.872;4.348;2022-07-01T16:19:01;23.00;63.30
63409;DHT22;49544;50.872;4.348;2022-07-01T16:21:28;23.00;63.30
63409;DHT22;49544;50.872;4.348;2022-07-01T16:23:54;23.10;62.80
63409;DHT22;49544;50.872;4.348;2022-07-01T16:26:29;23.30;61.20
63409;DHT22;49544;50.872;4.348;2022-07-01T16:28:57;23.40;61.20
63409;DHT22;49544;50.872;4.348;2022-07-01T16:31:29;23.50;61.80